Time,TemperatureF,DewpointF,PressureIn,WindDirection,WindDirectionDegrees,WindSpeedMPH,WindSpeedGustMPH,Humidity,HourlyPrecipIn,Conditions,Clouds,dailyrainin,SoftwareType,DateUTC
2013-03-13 00:00:00,57.4,56.8,30.08,SW,225,2.0,2.0,98,0.00,,,0.14,meteohub,2013-03-13 04:00:00,
2013-03-13 00:05:00,57.0,56.7,30.08,SW,225,2.0,2.0,99,0.00,,,0.14,meteohub,2013-03-13 04:05:00,
2013-03-13 00:07:00,57.0,56.7,30.08,SW,225,0.0,3.0,99,0.00,,,0.00,meteohub,2013-03-13 04:07:00,
2013-03-13 00:12:00,56.8,56.5,30.08,West,270,0.0,3.0,99,0.00,,,0.00,meteohub,2013-03-13 04:12:00,
2013-03-13 00:17:00,56.7,56.3,30.08,West,270,0.0,2.0,99,0.00,,,0.00,meteohub,2013-03-13 04:17:00,
2013-03-13 00:22:00,56.7,56.3,30.08,NW,315,0.0,2.0,99,0.00,,,0.00,meteohub,2013-03-13 04:22:00,
2013-03-13 00:27:00,56.5,56.1,30.09,North,0,0.0,2.0,99,0.00,,,0.00,meteohub,2013-03-13 04:27:00,
2013-03-13 00:32:00,56.3,55.9,30.09,North,0,0.0,2.0,99,0.00,,,0.00,meteohub,2013-03-13 04:32:00,
2013-03-13 00:37:00,56.1,55.8,30.09,North,0,1.0,2.0,99,0.00,,,0.00,meteohub,2013-03-13 04:37:00,
2013-03-13 00:43:00,55.9,55.6,30.09,West,270,1.0,1.0,99,0.00,,,0.00,meteohub,2013-03-13 04:43:00,
2013-03-13 00:48:00,55.8,55.4,30.10,West,270,1.0,2.0,99,0.00,,,0.00,meteohub,2013-03-13 04:48:00,
2013-03-13 00:53:00,55.8,55.4,30.11,NW,315,0.0,2.0,99,0.00,,,0.00,meteohub,2013-03-13 04:53:00,
2013-03-13 00:58:00,55.4,55.0,30.11,West,270,2.0,2.0,99,0.00,,,0.00,meteohub,2013-03-13 04:58:00,
2013-03-13 01:03:00,55.4,55.0,30.11,West,270,0.0,2.0,99,0.00,,,0.00,meteohub,2013-03-13 05:03:00,
2013-03-13 01:08:00,55.2,54.3,30.10,South,180,0.0,2.0,97,0.00,,,0.00,meteohub,2013-03-13 05:08:00,
2013-03-13 01:13:00,55.0,54.1,30.11,West,270,1.0,2.0,97,0.00,,,0.00,meteohub,2013-03-13 05:13:00,
2013-03-13 01:19:00,55.0,54.1,30.11,North,0,1.0,1.0,97,0.00,,,0.00,meteohub,2013-03-13 05:19:00,
2013-03-13 01:24:00,54.9,54.0,30.11,North,0,1.0,1.0,97,0.00,,,0.00,meteohub,2013-03-13 05:24:00,
2013-03-13 01:29:00,54.7,53.8,30.11,North,0,0.0,1.0,97,0.00,,,0.00,meteohub,2013-03-13 05:29:00,
2013-03-13 01:34:00,54.5,53.6,30.12,North,0,0.0,1.0,97,0.00,,,0.00,meteohub,2013-03-13 05:34:00,
2013-03-13 01:39:00,54.3,53.4,30.12,North,0,0.0,1.0,97,0.00,,,0.00,meteohub,2013-03-13 05:39:00,
2013-03-13 01:45:00,54.1,53.2,30.12,North,0,0.0,1.0,97,0.00,,,0.00,meteohub,2013-03-13 05:45:00,
2013-03-13 01:50:00,54.0,53.1,30.12,North,0,0.0,0.0,97,0.00,,,0.00,meteohub,2013-03-13 05:50:00,
2013-03-13 01:55:00,54.0,53.1,30.12,North,0,0.0,2.0,97,0.00,,,0.00,meteohub,2013-03-13 05:55:00,
2013-03-13 02:00:00,53.8,52.9,30.12,North,0,0.0,2.0,97,0.00,,,0.00,meteohub,2013-03-13 06:00:00,
2013-03-13 02:05:00,53.6,52.7,30.12,WNW,293,0.0,1.0,97,0.00,,,0.00,meteohub,2013-03-13 06:05:00,
2013-03-13 02:10:00,53.2,52.7,30.12,North,0,1.0,1.0,98,0.00,,,0.00,meteohub,2013-03-13 06:10:00,
2013-03-13 02:15:00,53.2,52.7,30.13,NW,315,0.0,1.0,98,0.00,,,0.00,meteohub,2013-03-13 06:15:00,
2013-03-13 02:20:00,52.9,52.3,30.13,NW,315,0.0,1.0,98,0.00,,,0.00,meteohub,2013-03-13 06:20:00,
2013-03-13 02:26:00,52.7,52.2,30.13,NW,315,0.0,1.0,98,0.00,,,0.00,meteohub,2013-03-13 06:26:00,
2013-03-13 02:31:00,52.5,52.0,30.13,NW,315,0.0,0.0,98,0.00,,,0.00,meteohub,2013-03-13 06:31:00,
2013-03-13 02:36:00,52.3,51.8,30.13,NW,315,0.0,0.0,98,0.00,,,0.00,meteohub,2013-03-13 06:36:00,
2013-03-13 02:41:00,52.0,51.4,30.13,NW,315,0.0,0.0,98,0.00,,,0.00,meteohub,2013-03-13 06:41:00,
2013-03-13 02:46:00,51.6,51.3,30.14,NW,315,0.0,0.0,99,0.00,,,0.00,meteohub,2013-03-13 06:46:00,
2013-03-13 02:51:00,51.4,51.1,30.13,NW,315,0.0,0.0,99,0.00,,,0.00,meteohub,2013-03-13 06:51:00,
2013-03-13 02:56:00,51.3,50.9,30.13,NW,315,0.0,0.0,99,0.00,,,0.00,meteohub,2013-03-13 06:56:00,
2013-03-13 03:01:00,51.1,50.7,30.14,NW,315,0.0,0.0,99,0.00,,,0.00,meteohub,2013-03-13 07:01:00,
2013-03-13 03:06:00,51.1,50.7,30.14,West,270,0.0,0.0,99,0.00,,,0.00,meteohub,2013-03-13 07:06:00,
2013-03-13 03:12:00,51.1,50.7,30.14,West,270,0.0,0.0,99,0.00,,,0.00,meteohub,2013-03-13 07:12:00,
2013-03-13 03:17:00,51.1,50.7,30.14,West,270,0.0,0.0,99,0.00,,,0.00,meteohub,2013-03-13 07:17:00,
2013-03-13 03:22:00,51.1,50.7,30.14,West,270,0.0,0.0,99,0.00,,,0.00,meteohub,2013-03-13 07:22:00,
2013-03-13 03:27:00,51.1,50.7,30.14,West,270,0.0,0.0,99,0.00,,,0.00,meteohub,2013-03-13 07:27:00,
2013-03-13 03:32:00,50.9,50.5,30.14,West,270,0.0,0.0,99,0.00,,,0.00,meteohub,2013-03-13 07:32:00,
2013-03-13 03:37:00,50.9,50.5,30.14,West,270,0.0,0.0,99,0.00,,,0.00,meteohub,2013-03-13 07:37:00,
2013-03-13 03:42:00,50.7,50.4,30.14,North,0,0.0,0.0,99,0.00,,,0.00,meteohub,2013-03-13 07:42:00,
2013-03-13 03:47:00,50.5,50.2,30.14,North,0,0.0,0.0,99,0.00,,,0.00,meteohub,2013-03-13 07:47:00,
2013-03-13 03:53:00,50.5,50.2,30.14,North,0,0.0,0.0,99,0.00,,,0.00,meteohub,2013-03-13 07:53:00,
2013-03-13 03:58:00,50.4,50.0,30.14,North,0,0.0,0.0,99,0.00,,,0.00,meteohub,2013-03-13 07:58:00,
2013-03-13 04:03:00,50.2,49.8,30.15,North,0,0.0,0.0,99,0.00,,,0.00,meteohub,2013-03-13 08:03:00,
2013-03-13 04:08:00,50.2,49.8,30.15,NW,315,0.0,0.0,99,0.00,,,0.00,meteohub,2013-03-13 08:08:00,
2013-03-13 04:14:00,50.0,49.6,30.15,NW,315,0.0,0.0,99,0.00,,,0.00,meteohub,2013-03-13 08:14:00,
2013-03-13 04:19:00,49.8,49.5,30.16,North,0,0.0,0.0,99,0.00,,,0.00,meteohub,2013-03-13 08:19:00,
2013-03-13 04:24:00,49.8,49.5,30.16,North,0,0.0,0.0,99,0.00,,,0.00,meteohub,2013-03-13 08:24:00,
2013-03-13 04:29:00,49.6,49.5,30.16,SW,225,0.0,0.0,99,0.00,,,0.00,meteohub,2013-03-13 08:29:00,
2013-03-13 04:34:00,49.3,49.1,30.16,West,270,0.0,0.0,99,0.00,,,0.00,meteohub,2013-03-13 08:34:00,
2013-03-13 04:39:00,49.3,49.1,30.17,West,270,0.0,0.0,99,0.00,,,0.00,meteohub,2013-03-13 08:39:00,
2013-03-13 04:45:00,49.1,48.9,30.17,North,0,0.0,0.0,99,0.00,,,0.00,meteohub,2013-03-13 08:45:00,
2013-03-13 04:50:00,49.1,48.9,30.17,West,270,0.0,0.0,99,0.00,,,0.00,meteohub,2013-03-13 08:50:00,
2013-03-13 04:55:00,49.1,48.6,30.17,NW,315,2.0,0.0,98,0.00,,,0.00,meteohub,2013-03-13 08:55:00,
2013-03-13 05:00:00,49.3,48.7,30.17,NW,315,1.0,2.0,98,0.00,,,0.00,meteohub,2013-03-13 09:00:00,
2013-03-13 05:05:00,49.5,48.9,30.18,North,0,2.0,2.0,98,0.00,,,0.00,meteohub,2013-03-13 09:05:00,
2013-03-13 05:10:00,49.8,48.9,30.18,NW,315,2.0,2.0,97,0.00,,,0.00,meteohub,2013-03-13 09:10:00,
2013-03-13 05:15:00,50.0,48.6,30.19,North,0,0.0,2.0,95,0.00,,,0.00,meteohub,2013-03-13 09:15:00,
2013-03-13 05:20:00,50.2,48.6,30.19,North,0,2.0,2.0,94,0.00,,,0.00,meteohub,2013-03-13 09:20:00,
2013-03-13 05:25:00,50.4,48.7,30.19,North,0,0.0,2.0,94,0.00,,,0.00,meteohub,2013-03-13 09:25:00,
2013-03-13 05:30:00,50.4,48.4,30.19,North,0,0.0,2.0,93,0.00,,,0.00,meteohub,2013-03-13 09:30:00,
2013-03-13 05:36:00,50.2,48.0,30.20,NNW,338,0.0,2.0,92,0.00,,,0.00,meteohub,2013-03-13 09:36:00,
2013-03-13 05:41:00,50.0,47.5,30.20,NW,315,0.0,1.0,91,0.00,,,0.00,meteohub,2013-03-13 09:41:00,
2013-03-13 05:46:00,49.8,47.3,30.21,NW,315,1.0,1.0,91,0.00,,,0.00,meteohub,2013-03-13 09:46:00,
2013-03-13 05:51:00,49.6,47.1,30.20,North,0,0.0,1.0,91,0.00,,,0.00,meteohub,2013-03-13 09:51:00,
2013-03-13 05:56:00,49.5,46.9,30.20,North,0,1.0,2.0,91,0.00,,,0.00,meteohub,2013-03-13 09:56:00,
2013-03-13 06:01:00,49.3,46.4,30.20,North,0,0.0,2.0,90,0.00,,,0.00,meteohub,2013-03-13 10:01:00,
2013-03-13 06:06:00,49.3,46.4,30.20,North,0,0.0,2.0,90,0.00,,,0.00,meteohub,2013-03-13 10:06:00,
2013-03-13 06:11:00,49.1,46.2,30.20,North,0,0.0,2.0,90,0.00,,,0.00,meteohub,2013-03-13 10:11:00,
2013-03-13 06:16:00,49.1,46.2,30.19,North,0,1.0,2.0,90,0.00,,,0.00,meteohub,2013-03-13 10:16:00,
2013-03-13 06:21:00,49.1,46.2,30.20,North,0,0.0,2.0,90,0.00,,,0.00,meteohub,2013-03-13 10:21:00,
2013-03-13 06:27:00,48.9,46.0,30.20,North,0,0.0,1.0,90,0.00,,,0.00,meteohub,2013-03-13 10:27:00,
2013-03-13 06:32:00,48.7,45.7,30.19,North,0,0.0,1.0,89,0.00,,,0.00,meteohub,2013-03-13 10:32:00,
2013-03-13 06:37:00,48.7,45.7,30.19,North,0,0.0,0.0,89,0.00,,,0.00,meteohub,2013-03-13 10:37:00,
2013-03-13 06:42:00,48.6,45.7,30.19,North,0,0.0,0.0,90,0.00,,,0.00,meteohub,2013-03-13 10:42:00,
2013-03-13 06:47:00,48.4,45.5,30.20,West,270,1.0,0.0,90,0.00,,,0.00,meteohub,2013-03-13 10:47:00,
2013-03-13 06:52:00,48.2,45.3,30.20,West,270,0.0,1.0,90,0.00,,,0.00,meteohub,2013-03-13 10:52:00,
2013-03-13 06:57:00,48.2,45.3,30.20,West,270,0.0,1.0,90,0.00,,,0.00,meteohub,2013-03-13 10:57:00,
2013-03-13 07:02:00,48.0,45.5,30.21,West,270,0.0,1.0,91,0.00,,,0.00,meteohub,2013-03-13 11:02:00,
2013-03-13 07:07:00,47.8,45.3,30.21,West,270,0.0,0.0,91,0.00,,,0.00,meteohub,2013-03-13 11:07:00,
2013-03-13 07:12:00,47.7,45.1,30.21,West,270,0.0,0.0,91,0.00,,,0.00,meteohub,2013-03-13 11:12:00,
2013-03-13 07:17:00,47.7,45.1,30.21,North,0,0.0,2.0,91,0.00,,,0.00,meteohub,2013-03-13 11:17:00,
2013-03-13 07:22:00,47.7,45.1,30.22,NW,315,1.0,2.0,91,0.00,,,0.00,meteohub,2013-03-13 11:22:00,
2013-03-13 07:27:00,47.7,45.1,30.22,North,0,0.0,2.0,91,0.00,,,0.00,meteohub,2013-03-13 11:27:00,
2013-03-13 07:33:00,47.8,45.3,30.22,NW,315,0.0,1.0,91,0.00,,,0.00,meteohub,2013-03-13 11:33:00,
2013-03-13 07:38:00,47.8,45.3,30.23,NW,315,0.0,1.0,91,0.00,,,0.00,meteohub,2013-03-13 11:38:00,
2013-03-13 07:43:00,48.0,45.1,30.23,North,0,2.0,2.0,90,0.00,,,0.00,meteohub,2013-03-13 11:43:00,
2013-03-13 07:48:00,48.2,45.1,30.24,NW,315,0.0,2.0,89,0.00,,,0.00,meteohub,2013-03-13 11:48:00,
2013-03-13 07:53:00,48.4,45.3,30.25,West,270,0.0,2.0,89,0.00,,,0.00,meteohub,2013-03-13 11:53:00,
2013-03-13 07:58:00,48.4,45.0,30.25,NW,315,2.0,2.0,88,0.00,,,0.00,meteohub,2013-03-13 11:58:00,
2013-03-13 08:03:00,48.6,45.1,30.25,North,0,2.0,2.0,88,0.00,,,0.00,meteohub,2013-03-13 12:03:00,
2013-03-13 08:08:00,48.7,45.0,30.25,North,0,1.0,2.0,87,0.00,,,0.00,meteohub,2013-03-13 12:08:00,
2013-03-13 08:13:00,48.9,45.1,30.25,West,270,2.0,2.0,87,0.00,,,0.00,meteohub,2013-03-13 12:13:00,
2013-03-13 08:19:00,49.1,45.3,30.26,North,0,2.0,2.0,87,0.00,,,0.00,meteohub,2013-03-13 12:19:00,
2013-03-13 08:24:00,49.1,45.1,30.26,NW,315,0.0,2.0,86,0.00,,,0.00,meteohub,2013-03-13 12:24:00,
2013-03-13 08:29:00,49.5,45.5,30.26,NW,315,3.0,3.0,86,0.00,,,0.00,meteohub,2013-03-13 12:29:00,
2013-03-13 08:34:00,49.6,45.3,30.26,North,0,1.0,4.0,85,0.00,,,0.00,meteohub,2013-03-13 12:34:00,
2013-03-13 08:39:00,50.0,45.3,30.26,North,0,1.0,4.0,84,0.00,,,0.00,meteohub,2013-03-13 12:39:00,
2013-03-13 08:44:00,50.4,45.3,30.26,NW,315,2.0,4.0,83,0.00,,,0.00,meteohub,2013-03-13 12:44:00,
2013-03-13 08:49:00,50.5,45.5,30.27,NW,315,2.0,4.0,83,0.00,,,0.00,meteohub,2013-03-13 12:49:00,
2013-03-13 08:54:00,50.7,45.5,30.27,North,0,2.0,4.0,82,0.00,,,0.00,meteohub,2013-03-13 12:54:00,
2013-03-13 08:59:00,51.1,45.5,30.27,NE,45,3.0,4.0,81,0.00,,,0.00,meteohub,2013-03-13 12:59:00,
2013-03-13 09:04:00,51.3,45.3,30.28,NW,315,3.0,4.0,80,0.00,,,0.00,meteohub,2013-03-13 13:04:00,
2013-03-13 09:09:00,51.6,45.3,30.28,West,270,4.0,4.0,79,0.00,,,0.00,meteohub,2013-03-13 13:09:00,
2013-03-13 09:14:00,52.0,45.0,30.29,NW,315,2.0,4.0,77,0.00,,,0.00,meteohub,2013-03-13 13:14:00,
2013-03-13 09:19:00,52.3,45.0,30.29,SW,225,4.0,4.0,76,0.00,,,0.00,meteohub,2013-03-13 13:19:00,
2013-03-13 09:25:00,52.9,45.5,30.30,NW,315,3.0,4.0,76,0.00,,,0.00,meteohub,2013-03-13 13:25:00,
2013-03-13 09:30:00,53.4,45.3,30.30,West,270,5.0,8.0,74,0.00,,,0.00,meteohub,2013-03-13 13:30:00,
2013-03-13 09:35:00,53.8,45.0,30.30,North,0,3.0,8.0,72,0.00,,,0.00,meteohub,2013-03-13 13:35:00,
2013-03-13 09:40:00,54.5,45.7,30.31,WNW,293,6.0,6.0,72,0.00,,,0.00,meteohub,2013-03-13 13:40:00,
2013-03-13 09:46:00,55.2,46.0,30.31,NNW,338,4.0,6.0,71,0.00,,,0.00,meteohub,2013-03-13 13:46:00,
2013-03-13 09:51:00,56.1,45.7,30.32,NE,45,3.0,6.0,68,0.00,,,0.00,meteohub,2013-03-13 13:51:00,
2013-03-13 09:57:00,56.7,45.9,30.32,NW,315,5.0,6.0,67,0.00,,,0.00,meteohub,2013-03-13 13:57:00,
2013-03-13 10:02:00,57.6,45.5,30.32,NW,315,4.0,6.0,64,0.00,,,0.00,meteohub,2013-03-13 14:02:00,
2013-03-13 10:07:00,58.6,45.7,30.33,East,90,2.0,5.0,62,0.00,,,0.00,meteohub,2013-03-13 14:07:00,
2013-03-13 10:12:00,59.4,45.5,30.33,North,0,2.0,5.0,60,0.00,,,0.00,meteohub,2013-03-13 14:12:00,
2013-03-13 10:17:00,60.4,45.7,30.33,North,0,2.0,5.0,58,0.00,,,0.00,meteohub,2013-03-13 14:17:00,
2013-03-13 10:22:00,61.3,46.0,30.33,West,270,4.0,5.0,57,0.00,,,0.00,meteohub,2013-03-13 14:22:00,
2013-03-13 10:27:00,61.7,43.9,30.33,West,270,2.0,6.0,52,0.00,,,0.00,meteohub,2013-03-13 14:27:00,
2013-03-13 10:32:00,62.1,43.7,30.33,NNW,338,2.0,8.0,51,0.00,,,0.00,meteohub,2013-03-13 14:32:00,
2013-03-13 10:37:00,62.4,44.1,30.34,SW,225,3.0,8.0,51,0.00,,,0.00,meteohub,2013-03-13 14:37:00,
2013-03-13 10:43:00,63.0,43.5,30.34,NW,315,6.0,6.0,49,0.00,,,0.00,meteohub,2013-03-13 14:43:00,
2013-03-13 10:48:00,63.5,42.3,30.34,NW,315,3.0,5.0,46,0.00,,,0.00,meteohub,2013-03-13 14:48:00,
2013-03-13 10:53:00,64.0,41.7,30.34,NNW,338,4.0,6.0,44,0.00,,,0.00,meteohub,2013-03-13 14:53:00,
2013-03-13 10:58:00,64.2,41.9,30.34,NW,315,4.0,7.0,44,0.00,,,0.00,meteohub,2013-03-13 14:58:00,
2013-03-13 11:03:00,64.8,42.3,30.34,North,0,7.0,7.0,44,0.00,,,0.00,meteohub,2013-03-13 15:03:00,
2013-03-13 11:08:00,65.3,41.5,30.34,NW,315,4.0,7.0,42,0.00,,,0.00,meteohub,2013-03-13 15:08:00,
2013-03-13 11:13:00,66.0,40.3,30.34,West,270,2.0,7.0,39,0.00,,,0.00,meteohub,2013-03-13 15:13:00,
2013-03-13 11:18:00,66.9,41.2,30.34,North,0,4.0,7.0,39,0.00,,,0.00,meteohub,2013-03-13 15:18:00,
2013-03-13 11:24:00,67.5,41.7,30.34,West,270,4.0,5.0,39,0.00,,,0.00,meteohub,2013-03-13 15:24:00,
2013-03-13 11:29:00,67.8,41.4,30.34,NE,45,2.0,5.0,38,0.00,,,0.00,meteohub,2013-03-13 15:29:00,
2013-03-13 11:34:00,68.4,39.6,30.34,NNE,23,3.0,5.0,35,0.00,,,0.00,meteohub,2013-03-13 15:34:00,
2013-03-13 11:39:00,68.7,39.2,30.34,North,0,4.0,5.0,34,0.00,,,0.00,meteohub,2013-03-13 15:39:00,
2013-03-13 11:44:00,69.1,38.8,30.34,North,0,4.0,7.0,33,0.00,,,0.00,meteohub,2013-03-13 15:44:00,
2013-03-13 11:49:00,69.4,37.4,30.34,NNW,338,8.0,8.0,31,0.00,,,0.00,meteohub,2013-03-13 15:49:00,
2013-03-13 11:55:00,69.4,37.4,30.34,North,0,6.0,7.0,31,0.00,,,0.00,meteohub,2013-03-13 15:55:00,
2013-03-13 12:00:00,70.0,34.5,30.35,North,0,5.0,8.0,27,0.00,,,0.00,meteohub,2013-03-13 16:00:00,
2013-03-13 12:05:00,70.3,31.8,30.34,West,270,4.0,9.0,24,0.00,,,0.00,meteohub,2013-03-13 16:05:00,
2013-03-13 12:10:00,71.1,37.2,30.34,North,0,2.0,9.0,29,0.00,,,0.00,meteohub,2013-03-13 16:10:00,
2013-03-13 12:15:00,71.4,36.7,30.34,North,0,4.0,6.0,28,0.00,,,0.00,meteohub,2013-03-13 16:15:00,
2013-03-13 12:20:00,71.6,31.8,30.34,NE,45,4.0,7.0,23,0.00,,,0.00,meteohub,2013-03-13 16:20:00,
2013-03-13 12:25:00,72.0,31.1,30.34,NW,315,6.0,7.0,22,0.00,,,0.00,meteohub,2013-03-13 16:25:00,
2013-03-13 12:30:00,72.1,32.4,30.34,North,0,5.0,7.0,23,0.00,,,0.00,meteohub,2013-03-13 16:30:00,
2013-03-13 12:36:00,72.3,32.4,30.34,North,0,4.0,6.0,23,0.00,,,0.00,meteohub,2013-03-13 16:36:00,
2013-03-13 12:41:00,72.5,33.6,30.34,SE,135,2.0,6.0,24,0.00,,,0.00,meteohub,2013-03-13 16:41:00,
2013-03-13 12:46:00,72.9,35.1,30.33,NW,315,4.0,5.0,25,0.00,,,0.00,meteohub,2013-03-13 16:46:00,
2013-03-13 12:51:00,73.2,34.3,30.33,SW,225,4.0,7.0,24,0.00,,,0.00,meteohub,2013-03-13 16:51:00,
2013-03-13 12:56:00,73.4,35.4,30.33,West,270,4.0,7.0,25,0.00,,,0.00,meteohub,2013-03-13 16:56:00,
2013-03-13 13:01:00,73.0,32.0,30.33,South,180,7.0,8.0,22,0.00,,,0.00,meteohub,2013-03-13 17:01:00,
2013-03-13 13:06:00,73.0,32.0,30.33,North,0,5.0,8.0,22,0.00,,,0.00,meteohub,2013-03-13 17:06:00,
2013-03-13 13:11:00,73.2,32.2,30.32,NE,45,3.0,10.0,22,0.00,,,0.00,meteohub,2013-03-13 17:11:00,
2013-03-13 13:17:00,73.6,35.6,30.32,NE,45,4.0,10.0,25,0.00,,,0.00,meteohub,2013-03-13 17:17:00,
2013-03-13 13:22:00,73.8,36.7,30.32,NNE,23,4.0,7.0,26,0.00,,,0.00,meteohub,2013-03-13 17:22:00,
2013-03-13 13:27:00,74.3,37.2,30.32,NE,45,2.0,7.0,26,0.00,,,0.00,meteohub,2013-03-13 17:27:00,
2013-03-13 13:32:00,74.5,37.4,30.31,West,270,2.0,5.0,26,0.00,,,0.00,meteohub,2013-03-13 17:32:00,
2013-03-13 13:37:00,75.0,37.8,30.31,SW,225,4.0,5.0,26,0.00,,,0.00,meteohub,2013-03-13 17:37:00,
2013-03-13 13:42:00,75.2,36.0,30.30,NW,315,4.0,7.0,24,0.00,,,0.00,meteohub,2013-03-13 17:42:00,
2013-03-13 13:47:00,75.2,36.0,30.30,NW,315,8.0,8.0,24,0.00,,,0.00,meteohub,2013-03-13 17:47:00,
2013-03-13 13:52:00,75.2,34.9,30.30,North,0,8.0,8.0,23,0.00,,,0.00,meteohub,2013-03-13 17:52:00,
2013-03-13 13:57:00,75.6,35.2,30.29,West,270,4.0,8.0,23,0.00,,,0.00,meteohub,2013-03-13 17:57:00,
2013-03-13 14:02:00,75.6,32.9,30.28,SW,225,4.0,8.0,21,0.00,,,0.00,meteohub,2013-03-13 18:02:00,
2013-03-13 14:07:00,75.6,34.0,30.28,North,0,2.0,8.0,22,0.00,,,0.00,meteohub,2013-03-13 18:07:00,
2013-03-13 14:12:00,75.6,34.0,30.28,NNW,338,2.0,8.0,22,0.00,,,0.00,meteohub,2013-03-13 18:12:00,
2013-03-13 14:18:00,75.7,35.2,30.28,West,270,3.0,8.0,23,0.00,,,0.00,meteohub,2013-03-13 18:18:00,
2013-03-13 14:23:00,75.9,35.4,30.27,North,0,4.0,8.0,23,0.00,,,0.00,meteohub,2013-03-13 18:23:00,
2013-03-13 14:28:00,75.9,34.3,30.27,NNE,23,5.0,7.0,22,0.00,,,0.00,meteohub,2013-03-13 18:28:00,
2013-03-13 14:33:00,76.1,35.6,30.26,NE,45,4.0,7.0,23,0.00,,,0.00,meteohub,2013-03-13 18:33:00,
2013-03-13 14:39:00,76.5,36.0,30.25,North,0,4.0,6.0,23,0.00,,,0.00,meteohub,2013-03-13 18:39:00,
2013-03-13 14:44:00,76.3,35.8,30.25,East,90,2.0,6.0,23,0.00,,,0.00,meteohub,2013-03-13 18:44:00,
2013-03-13 14:49:00,76.6,36.1,30.24,NE,45,4.0,5.0,23,0.00,,,0.00,meteohub,2013-03-13 18:49:00,
2013-03-13 14:54:00,77.2,36.5,30.24,NNE,23,3.0,5.0,23,0.00,,,0.00,meteohub,2013-03-13 18:54:00,
2013-03-13 14:59:00,77.2,33.1,30.23,North,0,4.0,5.0,20,0.00,,,0.00,meteohub,2013-03-13 18:59:00,
2013-03-13 15:04:00,77.4,34.3,30.23,SE,135,4.0,6.0,21,0.00,,,0.00,meteohub,2013-03-13 19:04:00,
2013-03-13 15:09:00,77.7,35.8,30.22,North,0,3.0,6.0,22,0.00,,,0.00,meteohub,2013-03-13 19:09:00,
2013-03-13 15:14:00,77.7,34.7,30.22,North,0,4.0,6.0,21,0.00,,,0.00,meteohub,2013-03-13 19:14:00,
2013-03-13 15:19:00,77.4,31.8,30.22,North,0,3.0,4.0,19,0.00,,,0.00,meteohub,2013-03-13 19:19:00,
2013-03-13 15:24:00,77.0,35.2,30.21,West,270,2.0,4.0,22,0.00,,,0.00,meteohub,2013-03-13 19:24:00,
2013-03-13 15:30:00,77.0,35.2,30.21,North,0,3.0,4.0,22,0.00,,,0.00,meteohub,2013-03-13 19:30:00,
2013-03-13 15:35:00,77.0,32.9,30.20,West,270,4.0,4.0,20,0.00,,,0.00,meteohub,2013-03-13 19:35:00,
2013-03-13 15:40:00,77.5,34.5,30.20,NW,315,5.0,5.0,21,0.00,,,0.00,meteohub,2013-03-13 19:40:00,
2013-03-13 15:45:00,77.5,34.5,30.19,NNE,23,4.0,5.0,21,0.00,,,0.00,meteohub,2013-03-13 19:45:00,
2013-03-13 15:50:00,77.5,34.5,30.19,North,0,2.0,5.0,21,0.00,,,0.00,meteohub,2013-03-13 19:50:00,
2013-03-13 15:56:00,77.9,36.0,30.19,North,0,3.0,5.0,22,0.00,,,0.00,meteohub,2013-03-13 19:56:00,
2013-03-13 16:01:00,77.5,33.3,30.18,NNW,338,3.0,8.0,20,0.00,,,0.00,meteohub,2013-03-13 20:01:00,
2013-03-13 16:06:00,77.0,34.2,30.18,NW,315,3.0,8.0,21,0.00,,,0.00,meteohub,2013-03-13 20:06:00,
2013-03-13 16:11:00,76.5,36.0,30.17,SW,225,3.0,8.0,23,0.00,,,0.00,meteohub,2013-03-13 20:11:00,
2013-03-13 16:16:00,75.6,32.9,30.17,SW,225,5.0,7.0,21,0.00,,,0.00,meteohub,2013-03-13 20:16:00,
2013-03-13 16:21:00,75.2,32.5,30.17,West,270,4.0,6.0,21,0.00,,,0.00,meteohub,2013-03-13 20:21:00,
2013-03-13 16:27:00,74.8,33.4,30.17,SW,225,3.0,6.0,22,0.00,,,0.00,meteohub,2013-03-13 20:27:00,
2013-03-13 16:32:00,75.0,30.0,30.16,WSW,248,4.0,5.0,19,0.00,,,0.00,meteohub,2013-03-13 20:32:00,
2013-03-13 16:37:00,74.5,29.5,30.15,NW,315,4.0,10.0,19,0.00,,,0.00,meteohub,2013-03-13 20:37:00,
2013-03-13 16:42:00,74.7,29.7,30.14,East,90,4.0,10.0,19,0.00,,,0.00,meteohub,2013-03-13 20:42:00,
2013-03-13 16:47:00,74.8,31.1,30.14,South,180,3.0,10.0,20,0.00,,,0.00,meteohub,2013-03-13 20:47:00,
2013-03-13 16:52:00,75.4,28.9,30.14,SW,225,8.0,8.0,18,0.00,,,0.00,meteohub,2013-03-13 20:52:00,
2013-03-13 16:57:00,75.0,30.0,30.14,NW,315,2.0,9.0,19,0.00,,,0.00,meteohub,2013-03-13 20:57:00,
2013-03-13 17:02:00,75.4,28.9,30.14,SE,135,6.0,9.0,18,0.00,,,0.00,meteohub,2013-03-13 21:02:00,
2013-03-13 17:07:00,75.6,29.1,30.14,East,90,5.0,9.0,18,0.00,,,0.00,meteohub,2013-03-13 21:07:00,
2013-03-13 17:13:00,75.2,28.8,30.14,West,270,3.0,8.0,18,0.00,,,0.00,meteohub,2013-03-13 21:13:00,
2013-03-13 17:18:00,74.8,31.1,30.13,East,90,3.0,8.0,20,0.00,,,0.00,meteohub,2013-03-13 21:18:00,
2013-03-13 17:23:00,74.8,32.4,30.13,West,270,6.0,8.0,21,0.00,,,0.00,meteohub,2013-03-13 21:23:00,
2013-03-13 17:29:00,74.5,30.7,30.13,SW,225,5.0,8.0,20,0.00,,,0.00,meteohub,2013-03-13 21:29:00,
2013-03-13 17:34:00,74.1,31.6,30.12,NW,315,3.0,8.0,21,0.00,,,0.00,meteohub,2013-03-13 21:34:00,
2013-03-13 17:39:00,74.5,30.7,30.12,North,0,5.0,8.0,20,0.00,,,0.00,meteohub,2013-03-13 21:39:00,
2013-03-13 17:44:00,74.3,30.6,30.12,North,0,2.0,6.0,20,0.00,,,0.00,meteohub,2013-03-13 21:44:00,
2013-03-13 17:49:00,73.9,30.4,30.12,NW,315,2.0,6.0,20,0.00,,,0.00,meteohub,2013-03-13 21:49:00,
2013-03-13 17:54:00,74.1,30.6,30.12,SW,225,4.0,5.0,20,0.00,,,0.00,meteohub,2013-03-13 21:54:00,
2013-03-13 18:00:00,74.3,29.3,30.12,East,90,3.0,7.0,19,0.00,,,0.00,meteohub,2013-03-13 22:00:00,
2013-03-13 18:05:00,74.8,31.1,30.12,NNW,338,5.0,8.0,20,0.00,,,0.00,meteohub,2013-03-13 22:05:00,
2013-03-13 18:10:00,75.2,28.8,30.11,North,0,4.0,8.0,18,0.00,,,0.00,meteohub,2013-03-13 22:10:00,
2013-03-13 18:15:00,75.4,28.9,30.11,West,270,2.0,8.0,18,0.00,,,0.00,meteohub,2013-03-13 22:15:00,
2013-03-13 18:20:00,75.6,30.4,30.12,SW,225,8.0,8.0,19,0.00,,,0.00,meteohub,2013-03-13 22:20:00,
2013-03-13 18:25:00,74.8,29.8,30.11,SW,225,7.0,8.0,19,0.00,,,0.00,meteohub,2013-03-13 22:25:00,
2013-03-13 18:31:00,74.5,29.5,30.11,NE,45,4.0,9.0,19,0.00,,,0.00,meteohub,2013-03-13 22:31:00,
2013-03-13 18:36:00,74.3,29.3,30.11,NW,315,4.0,9.0,19,0.00,,,0.00,meteohub,2013-03-13 22:36:00,
2013-03-13 18:41:00,73.9,29.1,30.11,NW,315,3.0,9.0,19,0.00,,,0.00,meteohub,2013-03-13 22:41:00,
2013-03-13 18:46:00,73.8,28.9,30.11,NE,45,2.0,8.0,19,0.00,,,0.00,meteohub,2013-03-13 22:46:00,
2013-03-13 18:51:00,73.0,25.7,30.11,NNW,338,2.0,5.0,17,0.00,,,0.00,meteohub,2013-03-13 22:51:00,
2013-03-13 18:56:00,72.1,26.2,30.11,North,0,1.0,4.0,18,0.00,,,0.00,meteohub,2013-03-13 22:56:00,
2013-03-13 19:01:00,71.6,27.1,30.11,West,270,2.0,3.0,19,0.00,,,0.00,meteohub,2013-03-13 23:01:00,
2013-03-13 19:06:00,71.1,28.0,30.11,NW,315,4.0,4.0,20,0.00,,,0.00,meteohub,2013-03-13 23:06:00,
2013-03-13 19:12:00,70.7,27.7,30.11,North,0,2.0,4.0,20,0.00,,,0.00,meteohub,2013-03-13 23:12:00,
2013-03-13 19:17:00,70.2,28.4,30.11,NW,315,2.0,4.0,21,0.00,,,0.00,meteohub,2013-03-13 23:17:00,
2013-03-13 19:22:00,69.6,30.2,30.11,North,0,0.0,4.0,23,0.00,,,0.00,meteohub,2013-03-13 23:22:00,
2013-03-13 19:27:00,69.1,29.7,30.12,North,0,0.0,2.0,23,0.00,,,0.00,meteohub,2013-03-13 23:27:00,
2013-03-13 19:32:00,68.4,30.2,30.11,East,90,3.0,3.0,24,0.00,,,0.00,meteohub,2013-03-13 23:32:00,
2013-03-13 19:37:00,67.5,31.5,30.12,NW,315,1.0,3.0,26,0.00,,,0.00,meteohub,2013-03-13 23:37:00,
2013-03-13 19:42:00,66.6,31.5,30.12,North,0,0.0,3.0,27,0.00,,,0.00,meteohub,2013-03-13 23:42:00,
2013-03-13 19:47:00,65.8,33.6,30.12,North,0,0.0,3.0,30,0.00,,,0.00,meteohub,2013-03-13 23:47:00,
2013-03-13 19:52:00,65.1,32.9,30.12,North,0,0.0,3.0,30,0.00,,,0.00,meteohub,2013-03-13 23:52:00,
2013-03-13 19:57:00,64.6,34.0,30.13,North,0,0.0,3.0,32,0.00,,,0.00,meteohub,2013-03-13 23:57:00,
2013-03-13 20:02:00,64.0,32.7,30.13,North,0,0.0,0.0,31,0.00,,,0.00,meteohub,2013-03-14 00:02:00,
2013-03-13 20:07:00,63.7,33.3,30.13,North,0,0.0,0.0,32,0.00,,,0.00,meteohub,2013-03-14 00:07:00,
2013-03-13 20:12:00,63.1,33.6,30.13,North,0,0.0,0.0,33,0.00,,,0.00,meteohub,2013-03-14 00:12:00,
2013-03-13 20:17:00,62.8,34.0,30.14,North,0,0.0,0.0,34,0.00,,,0.00,meteohub,2013-03-14 00:17:00,
2013-03-13 20:22:00,62.2,37.0,30.14,North,0,0.0,0.0,39,0.00,,,0.00,meteohub,2013-03-14 00:22:00,
2013-03-13 20:27:00,61.5,37.0,30.14,North,0,0.0,0.0,40,0.00,,,0.00,meteohub,2013-03-14 00:27:00,
2013-03-13 20:32:00,61.2,37.2,30.15,North,0,0.0,0.0,41,0.00,,,0.00,meteohub,2013-03-14 00:32:00,
2013-03-13 20:38:00,60.8,37.6,30.15,East,90,2.0,2.0,42,0.00,,,0.00,meteohub,2013-03-14 00:38:00,
2013-03-13 20:43:00,60.8,37.6,30.16,NW,315,1.0,2.0,42,0.00,,,0.00,meteohub,2013-03-14 00:43:00,
2013-03-13 20:48:00,60.8,38.1,30.17,SE,135,2.0,2.0,43,0.00,,,0.00,meteohub,2013-03-14 00:48:00,
2013-03-13 20:53:00,61.3,39.2,30.17,SW,225,2.0,2.0,44,0.00,,,0.00,meteohub,2013-03-14 00:53:00,
2013-03-13 20:58:00,61.2,39.0,30.18,South,180,0.0,2.0,44,0.00,,,0.00,meteohub,2013-03-14 00:58:00,
2013-03-13 21:03:00,61.0,39.6,30.18,NW,315,0.0,2.0,45,0.00,,,0.00,meteohub,2013-03-14 01:03:00,
2013-03-13 21:08:00,60.4,40.1,30.19,East,90,1.0,2.0,47,0.00,,,0.00,meteohub,2013-03-14 01:08:00,
2013-03-13 21:14:00,60.3,41.0,30.19,NW,315,0.0,2.0,49,0.00,,,0.00,meteohub,2013-03-14 01:14:00,
2013-03-13 21:19:00,59.7,41.0,30.19,SE,135,0.0,2.0,50,0.00,,,0.00,meteohub,2013-03-14 01:19:00,
2013-03-13 21:24:00,59.5,41.4,30.20,NW,315,0.0,2.0,51,0.00,,,0.00,meteohub,2013-03-14 01:24:00,
2013-03-13 21:29:00,59.2,41.5,30.20,SW,225,0.0,0.0,52,0.00,,,0.00,meteohub,2013-03-14 01:29:00,
2013-03-13 21:34:00,58.8,42.3,30.21,East,90,0.0,0.0,54,0.00,,,0.00,meteohub,2013-03-14 01:34:00,
2013-03-13 21:39:00,58.3,42.3,30.21,West,270,0.0,0.0,55,0.00,,,0.00,meteohub,2013-03-14 01:39:00,
2013-03-13 21:44:00,57.9,42.3,30.21,North,0,0.0,0.0,56,0.00,,,0.00,meteohub,2013-03-14 01:44:00,
2013-03-13 21:50:00,57.7,42.1,30.21,East,90,0.0,0.0,56,0.00,,,0.00,meteohub,2013-03-14 01:50:00,
2013-03-13 21:55:00,57.4,42.3,30.21,NW,315,0.0,0.0,57,0.00,,,0.00,meteohub,2013-03-14 01:55:00,
2013-03-13 22:00:00,57.0,42.4,30.22,SE,135,0.0,0.0,58,0.00,,,0.00,meteohub,2013-03-14 02:00:00,
2013-03-13 22:05:00,56.7,43.0,30.22,East,90,0.0,0.0,60,0.00,,,0.00,meteohub,2013-03-14 02:05:00,
2013-03-13 22:10:00,56.5,42.8,30.22,North,0,0.0,0.0,60,0.00,,,0.00,meteohub,2013-03-14 02:10:00,
2013-03-13 22:15:00,56.1,42.8,30.22,SW,225,0.0,0.0,61,0.00,,,0.00,meteohub,2013-03-14 02:15:00,
2013-03-13 22:20:00,55.6,42.8,30.23,NE,45,0.0,0.0,62,0.00,,,0.00,meteohub,2013-03-14 02:20:00,
2013-03-13 22:25:00,55.0,42.6,30.23,West,270,0.0,0.0,63,0.00,,,0.00,meteohub,2013-03-14 02:25:00,
2013-03-13 22:30:00,54.9,43.0,30.24,NW,315,1.0,0.0,64,0.00,,,0.00,meteohub,2013-03-14 02:30:00,
2013-03-13 22:35:00,54.7,43.2,30.24,NE,45,0.0,1.0,65,0.00,,,0.00,meteohub,2013-03-14 02:35:00,
2013-03-13 22:41:00,54.3,43.2,30.24,West,270,0.0,2.0,66,0.00,,,0.00,meteohub,2013-03-14 02:41:00,
2013-03-13 22:46:00,54.0,42.8,30.24,West,270,0.0,2.0,66,0.00,,,0.00,meteohub,2013-03-14 02:46:00,
2013-03-13 22:51:00,53.8,42.6,30.25,North,0,0.0,2.0,66,0.00,,,0.00,meteohub,2013-03-14 02:51:00,
2013-03-13 22:56:00,53.8,43.2,30.25,NW,315,2.0,0.0,67,0.00,,,0.00,meteohub,2013-03-14 02:56:00,
2013-03-13 23:01:00,54.1,43.3,30.25,NW,315,1.0,4.0,67,0.00,,,0.00,meteohub,2013-03-14 03:01:00,
2013-03-13 23:06:00,54.9,43.7,30.26,West,270,0.0,4.0,66,0.00,,,0.00,meteohub,2013-03-14 03:06:00,
2013-03-13 23:11:00,55.2,43.7,30.26,North,0,0.0,4.0,65,0.00,,,0.00,meteohub,2013-03-14 03:11:00,
2013-03-13 23:16:00,55.4,43.9,30.26,North,0,0.0,2.0,65,0.00,,,0.00,meteohub,2013-03-14 03:16:00,
2013-03-13 23:22:00,55.4,43.9,30.27,North,0,0.0,0.0,65,0.00,,,0.00,meteohub,2013-03-14 03:22:00,
2013-03-13 23:27:00,55.0,43.2,30.27,North,0,0.0,0.0,64,0.00,,,0.00,meteohub,2013-03-14 03:27:00,
2013-03-13 23:32:00,54.9,43.3,30.27,North,0,0.0,0.0,65,0.00,,,0.00,meteohub,2013-03-14 03:32:00,
2013-03-13 23:37:00,54.5,43.0,30.27,North,0,0.0,0.0,65,0.00,,,0.00,meteohub,2013-03-14 03:37:00,
2013-03-13 23:42:00,54.0,42.8,30.28,North,0,0.0,0.0,66,0.00,,,0.00,meteohub,2013-03-14 03:42:00,
2013-03-13 23:47:00,53.6,43.0,30.28,North,0,0.0,0.0,67,0.00,,,0.00,meteohub,2013-03-14 03:47:00,
2013-03-13 23:53:00,53.2,43.3,30.28,North,0,0.0,0.0,69,0.00,,,0.00,meteohub,2013-03-14 03:53:00,
2013-03-13 23:58:00,52.9,43.3,30.28,North,0,0.0,0.0,70,0.00,,,0.00,meteohub,2013-03-14 03:58:00,